sensor_id;sensor_type;location;lat;lon;timestamp;temperature;humidity
16736;DHT22;17990;49.548;9.730;2023-12-20T00:00:29;6.00;99.90
16736;DHT22;17990;49.548;9.730;2023-12-20T00:02:56;5.90;99.90
16736;DHT22;17990;49.548;9.730;2023-12-20T00:05:23;6.00;99.90
16736;DHT22;17990;49.548;9.730;2023-12-20T00:07:50;6.00;99.90
16736;DHT22;17990;49.548;9.730;2023-12-20T00:10:17;6.00;99.90
16736;DHT22;17990;49.548;9.730;2023-12-20T00:12:43;6.00;99.90
16736;DHT22;17990;49.548;9.730;2023-12-20T00:15:12;5.90;99.90
16736;DHT22;17990;49.548;9.730;2023-12-20T00:17:38;6.00;99.90
16736;DHT22;17990;49.548;9.730;2023-12-20T00:20:07;5.90;99.90
16736;DHT22;17990;49.548;9.730;2023-12-20T00:22:33;6.00;99.90
16736;DHT22;17990;49.548;9.730;2023-12-20T00:25:00;6.00;99.90
16736;DHT22;17990;49.548;9.730;2023-12-20T00:27:27;6.00;99.90
16736;DHT22;17990;49.548;9.730;2023-12-20T00:29:54;6.00;99.90
16736;DHT22;17990;49.548;9.730;2023-12-20T00:32:22;6.00;99.90
16736;DHT22;17990;49.548;9.730;2023-12-20T00:34:48;6.00;99.90
16736;DHT22;17990;49.548;9.730;2023-12-20T00:37:15;5.90;99.90
16736;DHT22;17990;49.548;9.730;2023-12-20T00:39:42;6.00;99.90
16736;DHT22;17990;49.548;9.730;2023-12-20T00:42:09;6.00;99.90
16736;DHT22;17990;49.548;9.730;2023-12-20T00:44:36;6.00;99.90
16736;DHT22;17990;49.548;9.730;2023-12-20T00:47:03;6.00;99.90
16736;DHT22;17990;49.548;9.730;2023-12-20T00:49:31;5.90;99.90
16736;DHT22;17990;49.548;9.730;2023-12-20T00:51:58;6.00;99.90
16736;DHT22;17990;49.548;9.730;2023-12-20T00:54:24;6.00;99.90
16736;DHT22;17990;49.548;9.730;2023-12-20T00:56:51;6.00;99.90
16736;DHT22;17990;49.548;9.730;2023-12-20T00:59:18;6.00;99.90
16736;DHT22;17990;49.548;9.730;2023-12-20T01:01:45;5.90;99.90
16736;DHT22;17990;49.548;9.730;2023-12-20T01:04:12;5.90;99.90
16736;DHT22;17990;49.548;9.730;2023-12-20T01:06:40;5.90;99.90
16736;DHT22;17990;49.548;9.730;2023-12-20T01:09:07;5.90;99.90
16736;DHT22;17990;49.548;9.730;2023-12-20T01:11:33;5.90;99.90
16736;DHT22;17990;49.548;9.730;2023-12-20T01:14:00;6.00;99.90
16736;DHT22;17990;49.548;9.730;2023-12-20T01:16:27;5.90;99.90
16736;DHT22;17990;49.548;9.730;2023-12-20T01:18:53;5.90;99.90
16736;DHT22;17990;49.548;9.730;2023-12-20T01:21:20;5.90;99.90
16736;DHT22;17990;49.548;9.730;2023-12-20T01:23:48;5.90;99.90
16736;DHT22;17990;49.548;9.730;2023-12-20T01:26:15;5.90;99.90
16736;DHT22;17990;49.548;9.730;2023-12-20T01:28:42;5.90;99.90
16736;DHT22;17990;49.548;9.730;2023-12-20T01:31:08;5.90;99.90
16736;DHT22;17990;49.548;9.730;2023-12-20T01:33:35;5.90;99.90
16736;DHT22;17990;49.548;9.730;2023-12-20T01:36:02;5.90;99.90
16736;DHT22;17990;49.548;9.730;2023-12-20T01:38:29;5.90;99.90
16736;DHT22;17990;49.548;9.730;2023-12-20T01:40:57;5.90;99.90
16736;DHT22;17990;49.548;9.730;2023-12-20T01:43:24;6.00;99.90
16736;DHT22;17990;49.548;9.730;2023-12-20T01:45:51;6.00;99.90
16736;DHT22;17990;49.548;9.730;2023-12-20T01:48:19;5.90;99.90
16736;DHT22;17990;49.548;9.730;2023-12-20T01:50:46;5.90;99.90
16736;DHT22;17990;49.548;9.730;2023-12-20T01:53:13;5.90;99.90
16736;DHT22;17990;49.548;9.730;2023-12-20T01:55:41;5.90;99.90
16736;DHT22;17990;49.548;9.730;2023-12-20T01:58:09;5.90;99.90
16736;DHT22;17990;49.548;9.730;2023-12-20T02:00:37;5.90;99.90
16736;DHT22;17990;49.548;9.730;2023-12-20T02:03:05;5.90;99.90
16736;DHT22;17990;49.548;9.730;2023-12-20T02:05:33;5.90;99.90
16736;DHT22;17990;49.548;9.730;2023-12-20T02:08:00;5.80;99.90
16736;DHT22;17990;49.548;9.730;2023-12-20T02:10:27;5.80;99.90
16736;DHT22;17990;49.548;9.730;2023-12-20T02:12:54;5.80;99.90
16736;DHT22;17990;49.548;9.730;2023-12-20T02:15:23;5.80;99.90
16736;DHT22;17990;49.548;9.730;2023-12-20T02:17:50;5.80;99.90
16736;DHT22;17990;49.548;9.730;2023-12-20T02:20:16;5.80;99.90
16736;DHT22;17990;49.548;9.730;2023-12-20T02:22:44;5.80;99.90
16736;DHT22;17990;49.548;9.730;2023-12-20T02:25:11;5.70;99.90
16736;DHT22;17990;49.548;9.730;2023-12-20T02:27:38;5.70;99.90
16736;DHT22;17990;49.548;9.730;2023-12-20T02:30:06;5.70;99.90
16736;DHT22;17990;49.548;9.730;2023-12-20T02:32:33;5.70;99.90
16736;DHT22;17990;49.548;9.730;2023-12-20T02:35:00;5.70;99.90
16736;DHT22;17990;49.548;9.730;2023-12-20T02:37:26;5.60;99.90
16736;DHT22;17990;49.548;9.730;2023-12-20T02:39:54;5.60;99.90
16736;DHT22;17990;49.548;9.730;2023-12-20T02:42:21;5.60;99.90
16736;DHT22;17990;49.548;9.730;2023-12-20T02:44:48;5.60;99.90
16736;DHT22;17990;49.548;9.730;2023-12-20T02:47:14;5.70;99.90
16736;DHT22;17990;49.548;9.730;2023-12-20T02:49:41;5.60;99.90
16736;DHT22;17990;49.548;9.730;2023-12-20T02:52:08;5.70;99.90
16736;DHT22;17990;49.548;9.730;2023-12-20T02:54:34;5.70;99.90
16736;DHT22;17990;49.548;9.730;2023-12-20T02:57:03;5.70;99.90
16736;DHT22;17990;49.548;9.730;2023-12-20T02:59:30;5.70;99.90
16736;DHT22;17990;49.548;9.730;2023-12-20T03:01:56;5.70;99.90
16736;DHT22;17990;49.548;9.730;2023-12-20T03:04:23;5.70;99.90
16736;DHT22;17990;49.548;9.730;2023-12-20T03:06:50;5.70;99.90
16736;DHT22;17990;49.548;9.730;2023-12-20T03:09:17;5.70;99.90
16736;DHT22;17990;49.548;9.730;2023-12-20T03:11:44;5.70;99.90
16736;DHT22;17990;49.548;9.730;2023-12-20T03:14:12;5.70;99.90
16736;DHT22;17990;49.548;9.730;2023-12-20T03:16:38;5.70;99.90
16736;DHT22;17990;49.548;9.730;2023-12-20T03:19:05;5.70;99.90
16736;DHT22;17990;49.548;9.730;2023-12-20T03:21:32;5.70;99.90
16736;DHT22;17990;49.548;9.730;2023-12-20T03:23:58;5.70;99.90
16736;DHT22;17990;49.548;9.730;2023-12-20T03:26:25;5.70;99.90
16736;DHT22;17990;49.548;9.730;2023-12-20T03:28:52;5.70;99.90
16736;DHT22;17990;49.548;9.730;2023-12-20T03:31:20;5.70;99.90
16736;DHT22;17990;49.548;9.730;2023-12-20T03:33:47;5.70;99.90
16736;DHT22;17990;49.548;9.730;2023-12-20T03:36:14;5.70;99.90
16736;DHT22;17990;49.548;9.730;2023-12-20T03:38:41;5.60;99.90
16736;DHT22;17990;49.548;9.730;2023-12-20T03:41:07;5.60;99.90
16736;DHT22;17990;49.548;9.730;2023-12-20T03:43:34;5.70;99.90
16736;DHT22;17990;49.548;9.730;2023-12-20T03:46:01;5.70;99.90
16736;DHT22;17990;49.548;9.730;2023-12-20T03:48:30;5.70;99.90
16736;DHT22;17990;49.548;9.730;2023-12-20T03:50:57;5.60;99.90
16736;DHT22;17990;49.548;9.730;2023-12-20T03:53:24;5.60;99.90
16736;DHT22;17990;49.548;9.730;2023-12-20T03:55:50;5.60;99.90
16736;DHT22;17990;49.548;9.730;2023-12-20T03:58:17;5.60;99.90
16736;DHT22;17990;49.548;9.730;2023-12-20T04:00:44;5.60;99.90
16736;DHT22;17990;49.548;9.730;2023-12-20T04:03:10;5.60;99.90
16736;DHT22;17990;49.548;9.730;2023-12-20T04:05:40;5.50;99.90
16736;DHT22;17990;49.548;9.730;2023-12-20T04:08:07;5.50;99.90
16736;DHT22;17990;49.548;9.730;2023-12-20T04:10:34;5.50;99.90
16736;DHT22;17990;49.548;9.730;2023-12-20T04:13:03;5.40;99.90
16736;DHT22;17990;49.548;9.730;2023-12-20T04:15:29;5.50;99.90
16736;DHT22;17990;49.548;9.730;2023-12-20T04:17:56;5.50;99.90
16736;DHT22;17990;49.548;9.730;2023-12-20T04:20:23;5.40;99.90
16736;DHT22;17990;49.548;9.730;2023-12-20T04:22:51;5.40;99.90
16736;DHT22;17990;49.548;9.730;2023-12-20T04:25:18;5.40;99.90
16736;DHT22;17990;49.548;9.730;2023-12-20T04:27:44;5.50;99.90
16736;DHT22;17990;49.548;9.730;2023-12-20T04:30:11;5.50;99.90
16736;DHT22;17990;49.548;9.730;2023-12-20T04:32:38;5.50;99.90
16736;DHT22;17990;49.548;9.730;2023-12-20T04:35:05;5.50;99.90
16736;DHT22;17990;49.548;9.730;2023-12-20T04:37:33;5.50;99.90
16736;DHT22;17990;49.548;9.730;2023-12-20T04:40:02;5.40;99.90
16736;DHT22;17990;49.548;9.730;2023-12-20T04:42:30;5.40;99.90
16736;DHT22;17990;49.548;9.730;2023-12-20T04:44:57;5.40;99.90
16736;DHT22;17990;49.548;9.730;2023-12-20T04:47:24;5.40;99.90
16736;DHT22;17990;49.548;9.730;2023-12-20T04:49:51;5.50;99.90
16736;DHT22;17990;49.548;9.730;2023-12-20T04:52:18;5.50;99.90
16736;DHT22;17990;49.548;9.730;2023-12-20T04:54:44;5.40;99.90
16736;DHT22;17990;49.548;9.730;2023-12-20T04:57:12;5.50;99.90
16736;DHT22;17990;49.548;9.730;2023-12-20T04:59:38;5.40;99.90
16736;DHT22;17990;49.548;9.730;2023-12-20T05:02:06;5.40;99.90
16736;DHT22;17990;49.548;9.730;2023-12-20T05:04:33;5.40;99.90
16736;DHT22;17990;49.548;9.730;2023-12-20T05:07:00;5.50;99.90
16736;DHT22;17990;49.548;9.730;2023-12-20T05:09:26;5.50;99.90
16736;DHT22;17990;49.548;9.730;2023-12-20T05:11:53;5.50;99.90
16736;DHT22;17990;49.548;9.730;2023-12-20T05:14:21;5.50;99.90
16736;DHT22;17990;49.548;9.730;2023-12-20T05:16:48;5.50;99.90
16736;DHT22;17990;49.548;9.730;2023-12-20T05:19:14;5.50;99.90
16736;DHT22;17990;49.548;9.730;2023-12-20T05:21:41;5.50;99.90
16736;DHT22;17990;49.548;9.730;2023-12-20T05:24:08;5.50;99.90
16736;DHT22;17990;49.548;9.730;2023-12-20T05:26:35;5.50;99.90
16736;DHT22;17990;49.548;9.730;2023-12-20T05:29:01;5.40;99.90
16736;DHT22;17990;49.548;9.730;2023-12-20T05:31:30;5.40;99.90
16736;DHT22;17990;49.548;9.730;2023-12-20T05:33:57;5.40;99.90
16736;DHT22;17990;49.548;9.730;2023-12-20T05:36:24;5.40;99.90
16736;DHT22;17990;49.548;9.730;2023-12-20T05:38:51;5.40;99.90
16736;DHT22;17990;49.548;9.730;2023-12-20T05:41:17;5.40;99.90
16736;DHT22;17990;49.548;9.730;2023-12-20T05:43:44;5.40;99.90
16736;DHT22;17990;49.548;9.730;2023-12-20T05:46:11;5.40;99.90
16736;DHT22;17990;49.548;9.730;2023-12-20T05:48:39;5.50;99.90
16736;DHT22;17990;49.548;9.730;2023-12-20T05:51:05;5.50;99.90
16736;DHT22;17990;49.548;9.730;2023-12-20T05:53:33;5.50;99.90
16736;DHT22;17990;49.548;9.730;2023-12-20T05:56:00;5.50;99.90
16736;DHT22;17990;49.548;9.730;2023-12-20T05:58:26;5.50;99.90
16736;DHT22;17990;49.548;9.730;2023-12-20T06:00:54;5.50;99.90
16736;DHT22;17990;49.548;9.730;2023-12-20T06:03:21;5.60;99.90
16736;DHT22;17990;49.548;9.730;2023-12-20T06:05:50;5.60;99.90
16736;DHT22;17990;49.548;9.730;2023-12-20T06:08:17;5.60;99.90
16736;DHT22;17990;49.548;9.730;2023-12-20T06:10:44;5.60;99.90
16736;DHT22;17990;49.548;9.730;2023-12-20T06:13:11;5.70;99.90
16736;DHT22;17990;49.548;9.730;2023-12-20T06:15:38;5.70;99.90
16736;DHT22;17990;49.548;9.730;2023-12-20T06:18:05;5.70;99.90
16736;DHT22;17990;49.548;9.730;2023-12-20T06:20:32;5.70;99.90
16736;DHT22;17990;49.548;9.730;2023-12-20T06:23:00;5.70;99.90
16736;DHT22;17990;49.548;9.730;2023-12-20T06:25:27;5.70;99.90
16736;DHT22;17990;49.548;9.730;2023-12-20T06:27:54;5.70;99.90
16736;DHT22;17990;49.548;9.730;2023-12-20T06:30:21;5.80;99.90
16736;DHT22;17990;49.548;9.730;2023-12-20T06:32:48;5.80;99.90
16736;DHT22;17990;49.548;9.730;2023-12-20T06:35:15;5.80;99.90
16736;DHT22;17990;49.548;9.730;2023-12-20T06:37:41;5.70;99.90
16736;DHT22;17990;49.548;9.730;2023-12-20T06:40:11;5.70;99.90
16736;DHT22;17990;49.548;9.730;2023-12-20T06:42:38;5.70;99.90
16736;DHT22;17990;49.548;9.730;2023-12-20T06:45:05;5.60;99.90
16736;DHT22;17990;49.548;9.730;2023-12-20T06:47:32;5.60;99.90
16736;DHT22;17990;49.548;9.730;2023-12-20T06:49:59;5.50;99.90
16736;DHT22;17990;49.548;9.730;2023-12-20T06:52:26;5.40;99.90
16736;DHT22;17990;49.548;9.730;2023-12-20T06:54:52;5.40;99.90
16736;DHT22;17990;49.548;9.730;2023-12-20T06:57:20;5.40;99.90
16736;DHT22;17990;49.548;9.730;2023-12-20T06:59:47;5.40;99.90
16736;DHT22;17990;49.548;9.730;2023-12-20T07:02:14;5.40;99.90
16736;DHT22;17990;49.548;9.730;2023-12-20T07:04:41;5.40;99.90
16736;DHT22;17990;49.548;9.730;2023-12-20T07:07:07;5.30;99.90
16736;DHT22;17990;49.548;9.730;2023-12-20T07:09:34;5.30;99.90
16736;DHT22;17990;49.548;9.730;2023-12-20T07:12:01;5.30;99.90
16736;DHT22;17990;49.548;9.730;2023-12-20T07:14:29;5.30;99.90
16736;DHT22;17990;49.548;9.730;2023-12-20T07:16:56;5.30;99.90
16736;DHT22;17990;49.548;9.730;2023-12-20T07:19:23;5.20;99.90
16736;DHT22;17990;49.548;9.730;2023-12-20T07:21:49;5.20;99.90
16736;DHT22;17990;49.548;9.730;2023-12-20T07:24:16;5.20;99.90
16736;DHT22;17990;49.548;9.730;2023-12-20T07:26:43;5.20;99.90
16736;DHT22;17990;49.548;9.730;2023-12-20T07:29:10;5.20;99.90
16736;DHT22;17990;49.548;9.730;2023-12-20T07:31:38;5.20;99.90
16736;DHT22;17990;49.548;9.730;2023-12-20T07:34:04;5.20;99.90
16736;DHT22;17990;49.548;9.730;2023-12-20T07:36:31;5.20;99.90
16736;DHT22;17990;49.548;9.730;2023-12-20T07:38:58;5.20;99.90
16736;DHT22;17990;49.548;9.730;2023-12-20T07:41:25;5.10;99.90
16736;DHT22;17990;49.548;9.730;2023-12-20T07:43:52;5.10;99.90
16736;DHT22;17990;49.548;9.730;2023-12-20T07:46:21;5.00;99.90
16736;DHT22;17990;49.548;9.730;2023-12-20T07:48:50;5.00;99.90
16736;DHT22;17990;49.548;9.730;2023-12-20T07:51:17;4.90;99.90
16736;DHT22;17990;49.548;9.730;2023-12-20T07:53:44;4.80;99.90
16736;DHT22;17990;49.548;9.730;2023-12-20T07:56:14;4.80;99.90
16736;DHT22;17990;49.548;9.730;2023-12-20T07:58:41;4.80;99.90
16736;DHT22;17990;49.548;9.730;2023-12-20T08:01:08;4.70;99.90
16736;DHT22;17990;49.548;9.730;2023-12-20T08:03:35;4.80;99.90
16736;DHT22;17990;49.548;9.730;2023-12-20T08:06:03;4.90;99.90
16736;DHT22;17990;49.548;9.730;2023-12-20T08:08:30;5.10;99.90
16736;DHT22;17990;49.548;9.730;2023-12-20T08:10:57;5.20;99.90
16736;DHT22;17990;49.548;9.730;2023-12-20T08:13:25;5.30;99.90
16736;DHT22;17990;49.548;9.730;2023-12-20T08:15:52;5.30;99.90
16736;DHT22;17990;49.548;9.730;2023-12-20T08:18:19;5.20;99.90
16736;DHT22;17990;49.548;9.730;2023-12-20T08:20:46;5.20;99.90
16736;DHT22;17990;49.548;9.730;2023-12-20T08:23:15;5.20;99.90
16736;DHT22;17990;49.548;9.730;2023-12-20T08:25:42;5.20;99.90
16736;DHT22;17990;49.548;9.730;2023-12-20T08:28:08;5.10;99.90
16736;DHT22;17990;49.548;9.730;2023-12-20T08:30:35;5.10;99.90
16736;DHT22;17990;49.548;9.730;2023-12-20T08:33:02;5.10;99.90
16736;DHT22;17990;49.548;9.730;2023-12-20T08:35:29;5.10;99.90
16736;DHT22;17990;49.548;9.730;2023-12-20T08:37:56;5.10;99.90
16736;DHT22;17990;49.548;9.730;2023-12-20T08:40:24;5.10;99.90
16736;DHT22;17990;49.548;9.730;2023-12-20T08:42:51;5.10;99.90
16736;DHT22;17990;49.548;9.730;2023-12-20T08:45:17;5.10;99.90
16736;DHT22;17990;49.548;9.730;2023-12-20T08:47:44;5.20;99.90
16736;DHT22;17990;49.548;9.730;2023-12-20T08:50:11;5.20;99.90
16736;DHT22;17990;49.548;9.730;2023-12-20T08:52:38;5.20;99.90
16736;DHT22;17990;49.548;9.730;2023-12-20T08:55:06;5.30;99.90
16736;DHT22;17990;49.548;9.730;2023-12-20T08:57:34;5.30;99.90
16736;DHT22;17990;49.548;9.730;2023-12-20T09:00:01;5.40;99.90
16736;DHT22;17990;49.548;9.730;2023-12-20T09:02:28;5.50;99.90
16736;DHT22;17990;49.548;9.730;2023-12-20T09:04:55;5.60;99.90
16736;DHT22;17990;49.548;9.730;2023-12-20T09:07:22;5.70;99.90
16736;DHT22;17990;49.548;9.730;2023-12-20T09:09:49;5.80;99.90
16736;DHT22;17990;49.548;9.730;2023-12-20T09:12:17;6.00;99.90
16736;DHT22;17990;49.548;9.730;2023-12-20T09:14:45;6.30;99.90
16736;DHT22;17990;49.548;9.730;2023-12-20T09:17:12;6.40;99.90
16736;DHT22;17990;49.548;9.730;2023-12-20T09:19:39;6.50;99.90
16736;DHT22;17990;49.548;9.730;2023-12-20T09:22:06;6.40;99.90
16736;DHT22;17990;49.548;9.730;2023-12-20T09:24:33;6.40;99.90
16736;DHT22;17990;49.548;9.730;2023-12-20T09:26:59;6.40;99.90
16736;DHT22;17990;49.548;9.730;2023-12-20T09:29:26;6.40;99.90
16736;DHT22;17990;49.548;9.730;2023-12-20T09:31:54;6.50;99.90
16736;DHT22;17990;49.548;9.730;2023-12-20T09:34:22;6.50;99.90
16736;DHT22;17990;49.548;9.730;2023-12-20T09:36:49;6.60;99.90
16736;DHT22;17990;49.548;9.730;2023-12-20T09:39:17;6.60;99.90
16736;DHT22;17990;49.548;9.730;2023-12-20T09:41:49;6.70;99.90
16736;DHT22;17990;49.548;9.730;2023-12-20T09:44:18;6.80;99.90
16736;DHT22;17990;49.548;9.730;2023-12-20T09:46:49;6.90;99.90
16736;DHT22;17990;49.548;9.730;2023-12-20T09:49:18;7.00;99.90
16736;DHT22;17990;49.548;9.730;2023-12-20T09:51:46;7.10;99.90
16736;DHT22;17990;49.548;9.730;2023-12-20T09:54:14;7.30;99.90
16736;DHT22;17990;49.548;9.730;2023-12-20T09:56:42;7.30;99.90
16736;DHT22;17990;49.548;9.730;2023-12-20T09:59:08;7.20;99.90
16736;DHT22;17990;49.548;9.730;2023-12-20T10:01:36;7.20;99.90
16736;DHT22;17990;49.548;9.730;2023-12-20T10:04:06;7.10;99.90
16736;DHT22;17990;49.548;9.730;2023-12-20T10:06:36;7.10;99.90
16736;DHT22;17990;49.548;9.730;2023-12-20T10:09:02;7.10;99.90
16736;DHT22;17990;49.548;9.730;2023-12-20T10:11:31;7.20;99.90
16736;DHT22;17990;49.548;9.730;2023-12-20T10:13:59;7.20;99.90
16736;DHT22;17990;49.548;9.730;2023-12-20T10:16:27;7.30;99.90
16736;DHT22;17990;49.548;9.730;2023-12-20T10:18:54;7.40;99.90
16736;DHT22;17990;49.548;9.730;2023-12-20T10:21:22;7.50;99.90
16736;DHT22;17990;49.548;9.730;2023-12-20T10:23:51;7.50;99.90
16736;DHT22;17990;49.548;9.730;2023-12-20T10:26:21;7.60;99.90
16736;DHT22;17990;49.548;9.730;2023-12-20T10:28:50;7.60;99.90
16736;DHT22;17990;49.548;9.730;2023-12-20T10:31:27;7.70;99.90
16736;DHT22;17990;49.548;9.730;2023-12-20T10:33:57;7.80;99.90
16736;DHT22;17990;49.548;9.730;2023-12-20T10:36:25;8.00;99.90
16736;DHT22;17990;49.548;9.730;2023-12-20T10:38:54;8.10;99.90
16736;DHT22;17990;49.548;9.730;2023-12-20T10:41:25;8.20;99.90
16736;DHT22;17990;49.548;9.730;2023-12-20T10:43:54;8.10;99.90
16736;DHT22;17990;49.548;9.730;2023-12-20T10:46:21;7.80;99.90
16736;DHT22;17990;49.548;9.730;2023-12-20T10:48:48;7.70;99.90
16736;DHT22;17990;49.548;9.730;2023-12-20T10:51:17;7.60;99.90
16736;DHT22;17990;49.548;9.730;2023-12-20T10:53:47;7.60;99.90
16736;DHT22;17990;49.548;9.730;2023-12-20T10:56:16;7.50;99.90
16736;DHT22;17990;49.548;9.730;2023-12-20T10:58:44;7.50;99.90
16736;DHT22;17990;49.548;9.730;2023-12-20T11:01:13;7.60;99.90
16736;DHT22;17990;49.548;9.730;2023-12-20T11:03:44;7.60;99.90
16736;DHT22;17990;49.548;9.730;2023-12-20T11:06:30;7.70;99.90
16736;DHT22;17990;49.548;9.730;2023-12-20T11:09:06;7.70;99.90
16736;DHT22;17990;49.548;9.730;2023-12-20T11:11:45;7.80;99.90
16736;DHT22;17990;49.548;9.730;2023-12-20T11:14:20;7.80;99.90
16736;DHT22;17990;49.548;9.730;2023-12-20T11:16:49;7.70;99.90
16736;DHT22;17990;49.548;9.730;2023-12-20T11:19:17;7.60;99.90
16736;DHT22;17990;49.548;9.730;2023-12-20T11:21:43;7.60;99.90
16736;DHT22;17990;49.548;9.730;2023-12-20T11:24:12;7.60;99.90
16736;DHT22;17990;49.548;9.730;2023-12-20T11:26:47;7.70;99.90
16736;DHT22;17990;49.548;9.730;2023-12-20T11:29:33;7.90;99.90
16736;DHT22;17990;49.548;9.730;2023-12-20T11:32:04;8.00;99.90
16736;DHT22;17990;49.548;9.730;2023-12-20T11:34:51;8.00;99.90
16736;DHT22;17990;49.548;9.730;2023-12-20T11:37:19;8.00;99.90
16736;DHT22;17990;49.548;9.730;2023-12-20T11:39:54;7.80;99.90
16736;DHT22;17990;49.548;9.730;2023-12-20T11:42:22;7.80;99.90
16736;DHT22;17990;49.548;9.730;2023-12-20T11:44:50;7.80;99.90
16736;DHT22;17990;49.548;9.730;2023-12-20T11:47:17;7.90;99.90
16736;DHT22;17990;49.548;9.730;2023-12-20T11:49:44;8.10;99.90
16736;DHT22;17990;49.548;9.730;2023-12-20T11:52:13;8.10;99.90
16736;DHT22;17990;49.548;9.730;2023-12-20T11:54:39;7.90;99.90
16736;DHT22;17990;49.548;9.730;2023-12-20T11:57:06;7.80;99.90
16736;DHT22;17990;49.548;9.730;2023-12-20T11:59:34;7.80;99.90
16736;DHT22;17990;49.548;9.730;2023-12-20T12:02:02;7.80;99.90
16736;DHT22;17990;49.548;9.730;2023-12-20T12:04:29;7.80;99.90
16736;DHT22;17990;49.548;9.730;2023-12-20T12:06:56;7.70;99.90
16736;DHT22;17990;49.548;9.730;2023-12-20T12:09:22;7.70;99.90
16736;DHT22;17990;49.548;9.730;2023-12-20T12:11:49;7.70;99.90
16736;DHT22;17990;49.548;9.730;2023-12-20T12:14:16;7.60;99.90
16736;DHT22;17990;49.548;9.730;2023-12-20T12:16:46;7.60;99.90
16736;DHT22;17990;49.548;9.730;2023-12-20T12:19:20;7.70;99.90
16736;DHT22;17990;49.548;9.730;2023-12-20T12:21:47;7.70;99.90
16736;DHT22;17990;49.548;9.730;2023-12-20T12:24:14;7.70;99.90
16736;DHT22;17990;49.548;9.730;2023-12-20T12:26:40;7.70;99.90
16736;DHT22;17990;49.548;9.730;2023-12-20T12:29:07;7.60;99.90
16736;DHT22;17990;49.548;9.730;2023-12-20T12:31:35;7.70;99.90
16736;DHT22;17990;49.548;9.730;2023-12-20T12:34:03;7.80;99.90
16736;DHT22;17990;49.548;9.730;2023-12-20T12:36:30;7.80;99.90
16736;DHT22;17990;49.548;9.730;2023-12-20T12:38:57;7.70;99.90
16736;DHT22;17990;49.548;9.730;2023-12-20T12:41:23;7.70;99.90
16736;DHT22;17990;49.548;9.730;2023-12-20T12:43:50;7.60;99.90
16736;DHT22;17990;49.548;9.730;2023-12-20T12:46:17;7.60;99.90
16736;DHT22;17990;49.548;9.730;2023-12-20T12:48:44;7.50;99.90
16736;DHT22;17990;49.548;9.730;2023-12-20T12:51:12;7.50;99.90
16736;DHT22;17990;49.548;9.730;2023-12-20T12:53:39;7.50;99.90
16736;DHT22;17990;49.548;9.730;2023-12-20T12:56:06;7.40;99.90
16736;DHT22;17990;49.548;9.730;2023-12-20T12:58:33;7.30;99.90
16736;DHT22;17990;49.548;9.730;2023-12-20T13:01:00;7.30;99.90
16736;DHT22;17990;49.548;9.730;2023-12-20T13:03:27;7.30;99.90
16736;DHT22;17990;49.548;9.730;2023-12-20T13:05:53;7.20;99.90
16736;DHT22;17990;49.548;9.730;2023-12-20T13:08:22;7.20;99.90
16736;DHT22;17990;49.548;9.730;2023-12-20T13:10:48;7.20;99.90
16736;DHT22;17990;49.548;9.730;2023-12-20T13:13:15;7.20;99.90
16736;DHT22;17990;49.548;9.730;2023-12-20T13:15:42;7.20;99.90
16736;DHT22;17990;49.548;9.730;2023-12-20T13:18:13;7.20;99.90
16736;DHT22;17990;49.548;9.730;2023-12-20T13:20:40;7.20;99.90
16736;DHT22;17990;49.548;9.730;2023-12-20T13:23:07;7.10;99.90
16736;DHT22;17990;49.548;9.730;2023-12-20T13:25:35;7.10;99.90
16736;DHT22;17990;49.548;9.730;2023-12-20T13:28:01;7.00;99.90
16736;DHT22;17990;49.548;9.730;2023-12-20T13:30:29;7.00;99.90
16736;DHT22;17990;49.548;9.730;2023-12-20T13:32:55;7.00;99.90
16736;DHT22;17990;49.548;9.730;2023-12-20T13:35:22;7.00;99.90
16736;DHT22;17990;49.548;9.730;2023-12-20T13:37:49;6.90;99.90
16736;DHT22;17990;49.548;9.730;2023-12-20T13:40:16;6.90;99.90
16736;DHT22;17990;49.548;9.730;2023-12-20T13:42:44;7.00;99.90
16736;DHT22;17990;49.548;9.730;2023-12-20T13:45:11;7.00;99.90
16736;DHT22;17990;49.548;9.730;2023-12-20T13:47:38;6.90;99.90
16736;DHT22;17990;49.548;9.730;2023-12-20T13:50:05;6.90;99.90
16736;DHT22;17990;49.548;9.730;2023-12-20T13:52:32;6.90;99.90
16736;DHT22;17990;49.548;9.730;2023-12-20T13:54:59;6.80;99.90
16736;DHT22;17990;49.548;9.730;2023-12-20T13:57:26;6.80;99.90
16736;DHT22;17990;49.548;9.730;2023-12-20T13:59:55;6.80;99.90
16736;DHT22;17990;49.548;9.730;2023-12-20T14:02:23;6.80;99.90
16736;DHT22;17990;49.548;9.730;2023-12-20T14:04:52;6.80;99.90
16736;DHT22;17990;49.548;9.730;2023-12-20T14:07:19;6.80;99.90
16736;DHT22;17990;49.548;9.730;2023-12-20T14:09:46;6.80;99.90
16736;DHT22;17990;49.548;9.730;2023-12-20T14:12:14;6.70;99.90
16736;DHT22;17990;49.548;9.730;2023-12-20T14:14:40;6.70;99.90
16736;DHT22;17990;49.548;9.730;2023-12-20T14:17:08;6.70;99.90
16736;DHT22;17990;49.548;9.730;2023-12-20T14:19:35;6.70;99.90
16736;DHT22;17990;49.548;9.730;2023-12-20T14:22:02;6.60;99.90
16736;DHT22;17990;49.548;9.730;2023-12-20T14:24:29;6.60;99.90
16736;DHT22;17990;49.548;9.730;2023-12-20T14:26:56;6.60;99.90
16736;DHT22;17990;49.548;9.730;2023-12-20T14:29:24;6.60;99.90
16736;DHT22;17990;49.548;9.730;2023-12-20T14:31:50;6.60;99.90
16736;DHT22;17990;49.548;9.730;2023-12-20T14:34:19;6.60;99.90
16736;DHT22;17990;49.548;9.730;2023-12-20T14:36:45;6.50;99.90
16736;DHT22;17990;49.548;9.730;2023-12-20T14:39:12;6.50;99.90
16736;DHT22;17990;49.548;9.730;2023-12-20T14:41:39;6.40;99.90
16736;DHT22;17990;49.548;9.730;2023-12-20T14:44:06;6.30;99.90
16736;DHT22;17990;49.548;9.730;2023-12-20T14:46:33;6.30;99.90
16736;DHT22;17990;49.548;9.730;2023-12-20T14:48:59;6.20;99.90
16736;DHT22;17990;49.548;9.730;2023-12-20T14:51:29;6.20;99.90
16736;DHT22;17990;49.548;9.730;2023-12-20T14:53:56;6.30;99.90
16736;DHT22;17990;49.548;9.730;2023-12-20T14:56:23;6.20;99.90
16736;DHT22;17990;49.548;9.730;2023-12-20T14:58:51;6.20;99.90
16736;DHT22;17990;49.548;9.730;2023-12-20T15:01:18;6.20;99.90
16736;DHT22;17990;49.548;9.730;2023-12-20T15:03:46;6.20;99.90
16736;DHT22;17990;49.548;9.730;2023-12-20T15:06:13;6.20;99.90
16736;DHT22;17990;49.548;9.730;2023-12-20T15:08:41;6.20;99.90
16736;DHT22;17990;49.548;9.730;2023-12-20T15:11:08;6.20;99.90
16736;DHT22;17990;49.548;9.730;2023-12-20T15:13:34;6.20;99.90
16736;DHT22;17990;49.548;9.730;2023-12-20T15:16:01;6.10;99.90
16736;DHT22;17990;49.548;9.730;2023-12-20T15:18:30;6.10;99.90
16736;DHT22;17990;49.548;9.730;2023-12-20T15:20:57;6.10;99.90
16736;DHT22;17990;49.548;9.730;2023-12-20T15:23:24;6.00;99.90
16736;DHT22;17990;49.548;9.730;2023-12-20T15:25:53;6.00;99.90
16736;DHT22;17990;49.548;9.730;2023-12-20T15:28:19;6.00;99.90
16736;DHT22;17990;49.548;9.730;2023-12-20T15:30:46;6.00;99.90
16736;DHT22;17990;49.548;9.730;2023-12-20T15:33:13;5.90;99.90
16736;DHT22;17990;49.548;9.730;2023-12-20T15:35:40;5.90;99.90
16736;DHT22;17990;49.548;9.730;2023-12-20T15:38:07;5.90;99.90
16736;DHT22;17990;49.548;9.730;2023-12-20T15:40:33;5.90;99.90
16736;DHT22;17990;49.548;9.730;2023-12-20T15:43:03;5.90;99.90
16736;DHT22;17990;49.548;9.730;2023-12-20T15:45:30;5.90;99.90